Sedgwick Reserve, California Weather observations

Data are for 10 minute period ending at time listed.
 Day   Time   Solar   Ave.   Ave.  Ave.  Vector  Max.   Baro.   Total    
  of    of     Rad.   Air    Rel.  Wind   Wind   Wind  Press.  Precip.   
Year   Day            Temp.  Hum.  Speed  Dir.   Gust                    
2015   (PST)  Kw/m2    F      %     mph   deg.    mph    mb.     in.     
-------------------------------------------------------------------------
 209   13:50   0.85   88.8    35    9.2   280    17.2   969.7    0.00 
 209   14:00   0.83   88.5    35   10.2   260    17.7   969.7    0.00 
 209   14:10   0.81   88.1    36   10.3   274    18.1   969.6    0.00 
 209   14:20   0.80   87.5    35    9.8   261    16.7   969.6    0.00 
 209   14:30   0.77   88.6    34    8.3   286    13.4   969.5    0.00 
 209   14:40   0.75   88.6    33    9.6   264    17.8   969.4    0.00 
 209   14:50   0.73   88.5    34    9.1   254    17.9   969.3    0.00 
 209   15:00   0.71   88.1    34   10.4   254    19.5   969.3    0.00 
 209   15:10   0.68   87.8    34   10.5   258    17.9   969.2    0.00 
 209   15:20   0.65   87.8    34   10.2   276    15.7   969.2    0.00 
 209   15:30   0.62   87.4    34   10.2   269    16.6   969.2    0.00 
 209   15:40   0.59   88.1    35    9.4   270    16.7   969.2    0.00 
 209   15:50   0.57   86.8    36   12.7   264    21.9   969.1    0.00 
 209   16:00   0.54   87.6    34   10.0   274    15.7   969.2    0.00 
 209   16:10   0.51   86.0    37   11.5   251    17.2   969.2    0.00 
 209   16:20   0.47   86.4    36   10.4   267    17.8   969.3    0.00 
 209   16:30   0.44   86.4    34   10.0   291    16.7   969.3    0.00 
 209   16:40   0.41   86.1    34    9.7   281    17.1   969.2    0.00 
 209   16:50   0.38   86.0    34    8.7   282    14.5   969.2    0.00 
 209   17:00   0.34   84.6    35   11.0   268    16.1   969.2    0.00 
 209   17:10   0.31   84.2    36   10.8   260    17.0   969.2    0.00 
 209   17:20   0.28   83.9    36   10.5   280    15.8   969.2    0.00 
 209   17:30   0.24   83.5    37    9.1   273    14.8   969.3    0.00 
 209   17:40   0.21   83.8    37    7.1   284    12.0   969.4    0.00 
 209   17:50   0.18   82.8    38    7.5   282    12.3   969.4    0.00 
 209   18:00   0.15   82.3    40    7.0   277    10.6   969.5    0.00 
 209   18:10   0.12   81.0    42    6.3   265    11.0   969.5    0.00 
 209   18:20   0.09   80.2    44    6.6   260    11.0   969.6    0.00 
 209   18:30   0.07   79.4    45    5.9   262    10.4   969.7    0.00 
 209   18:40   0.04   78.8    46    4.7   269     7.1   969.8    0.00 
 209   18:50   0.02   78.0    48    3.5   271     8.8   969.8    0.00 
 209   19:00   0.01   77.1    49    2.8   280     5.6   969.9    0.00 
 209   19:10   0.00   76.1    50    3.0   279     6.0   970.0    0.00 
 209   19:20   0.00   75.3    52    1.7   250     3.8   970.0    0.00 
 209   19:30   0.00   74.4    52    3.4   267     5.2   969.9    0.00 
 209   19:40   0.00   73.6    53    3.4   258     5.0   969.9    0.00 
 209   19:50   0.00   72.9    54    3.3   261     5.2   970.0    0.00 
 209   20:00   0.00   72.0    56    2.6   187     4.1   970.1    0.00 
 209   20:10   0.00   71.4    57    1.6   200     3.1   970.2    0.00 
 209   20:20   0.00   70.5    59    1.6   149     2.4   970.3    0.00 
 209   20:30   0.00   70.0    62    2.0   112     3.2   970.3    0.00 
 209   20:40   0.00   69.3    62    2.7   128     4.0   970.4    0.00 
 209   20:50   0.00   68.6    63    2.6   140     4.4   970.5    0.00 
 209   21:00   0.00   67.7    65    2.8   115     4.5   970.5    0.00 
 209   21:10   0.00   66.6    69    2.9    94     4.2   970.6    0.00 
 209   21:20   0.00   65.8    70    3.4   115     5.1   970.6    0.00 
 209   21:30   0.00   65.4    72    2.3   105     3.6   970.5    0.00 
 209   21:40   0.00   64.8    73    2.5   108     4.1   970.6    0.00 
 209   21:50   0.00   64.6    75    1.9   107     2.6   970.5    0.00 
 209   22:00   0.00   64.0    74    1.7    70     2.6   970.5    0.00 
 209   22:10   0.00   62.8    74    2.4    18     3.3   970.5    0.00 
 209   22:20   0.00   62.6    75    0.5    21     1.6   970.5    0.00 
 209   22:30   0.00   62.2    75    0.4   341     2.3   970.4    0.00 
 209   22:40   0.00   61.1    76    1.8   344     2.4   970.5    0.00 
 209   22:50   0.00   60.7    77    0.2   326     1.2   970.4    0.00 
 209   23:00   0.00   60.8    78    0.6   240     1.6   970.4    0.00 
 209   23:10   0.00   60.3    76    1.1   267     2.0   970.3    0.00 
 209   23:20   0.00   60.0    76    0.1   337     0.9   970.3    0.00 
 209   23:30   0.00   59.7    77    1.3   244     1.8   970.3    0.00 
 209   23:40   0.00   59.6    78    0.5     4     1.4   970.2    0.00 
 209   23:50   0.00   59.1    78    1.0    13     2.3   970.2    0.00 
 210    0:00   0.00   58.8    79    2.4   348     4.1   970.1    0.00 
 210    0:10   0.00   59.3    80    1.4   230     2.1   970.0    0.00 
 210    0:20   0.00   59.4    80    0.1   298     1.2   970.0    0.00 
 210    0:30   0.00   59.2    79    0.0    48     0.7   970.0    0.00 
 210    0:40   0.00   58.7    80    0.0     0     0.0   970.0    0.00 
 210    0:50   0.00   58.8    79    0.6    28     1.4   970.0    0.00 
 210    1:00   0.00   58.1    79    0.3   353     1.1   970.0    0.00 
 210    1:10   0.00   57.5    82    1.1   265     2.1   970.0    0.00 
 210    1:20   0.00   57.8    82    1.0   252     2.1   969.9    0.00 
 210    1:30   0.00   57.4    82    1.1    24     2.6   969.9    0.00 
 210    1:40   0.00   56.5    83    0.7    10     2.3   969.9    0.00 
 210    1:50   0.00   56.9    84    1.2   300     1.6   969.9    0.00 
 210    2:00   0.00   57.1    84    0.5   254     1.8   970.0    0.00 
 210    2:10   0.00   57.1    84    0.1   323     0.9   970.0    0.00 
 210    2:20   0.00   56.6    84    0.3   268     1.5   970.0    0.00 
 210    2:30   0.00   56.0    85    0.3   230     1.2   970.0    0.00 
 210    2:40   0.00   55.7    86    0.7   175     1.9   970.0    0.00 
 210    2:50   0.00   55.3    87    0.8    49     1.4   970.1    0.00 
 210    3:00   0.00   55.0    87    0.1    86     1.2   970.1    0.00 
 210    3:10   0.00   54.9    88    0.9    25     1.7   970.1    0.00 
 210    3:20   0.00   54.7    88    0.8    14     2.5   970.1    0.00 
 210    3:30   0.00   54.4    88    0.1   240     0.9   970.2    0.00 
 210    3:40   0.00   54.4    89    0.1   240     0.8   970.3    0.00 
 210    3:50   0.00   53.9    89    0.4   252     1.6   970.5    0.00 
 210    4:00   0.00   53.5    90    0.0    23     0.5   970.6    0.00 
 210    4:10   0.00   53.4    90    0.7   355     1.9   970.7    0.00 
 210    4:20   0.00   52.7    90    0.6     1     1.7   970.7    0.00 
 210    4:30   0.00   52.5    90    0.5     7     1.2   970.9    0.00 
 210    4:40   0.00   52.0    90    0.4    22     1.2   971.0    0.00 
 210    4:50   0.00   51.5    91    0.5    76     1.6   971.0    0.00 
 210    5:00   0.00   51.1    91    1.0    12     3.2   971.1    0.00 
 210    5:10   0.00   50.1    92    2.6   360     4.5   971.1    0.00 
 210    5:20   0.00   50.3    93    0.9   284     1.5   971.1    0.00 
 210    5:30   0.01   50.9    93    0.0     0     0.0   971.2    0.00 
 210    5:40   0.01   50.5    93    0.0     0     0.0   971.2    0.00 
 210    5:50   0.03   50.7    93    0.0     0     0.0   971.3    0.00 
 210    6:00   0.09   51.2    92    0.4   152     1.2   971.4    0.00 
 210    6:10   0.12   51.7    91    0.4    32     1.5   971.5    0.00 
 210    6:20   0.15   53.2    87    1.5    17     2.7   971.5    0.00 
 210    6:30   0.18   55.6    82    1.6    26     3.6   971.5    0.00 
 210    6:40   0.21   57.8    79    0.2   104     1.9   971.4    0.00 
 210    6:50   0.24   60.0    77    0.6   156     3.1   971.3    0.00 
 210    7:00   0.28   61.5    74    1.9   105     3.7   971.4    0.00 
 210    7:10   0.31   62.9    71    2.6   115     4.2   971.5    0.00 
 210    7:20   0.35   63.8    71    2.4   121     4.5   971.5    0.00 
 210    7:30   0.38   64.4    70    1.6   150     3.4   971.5    0.00 
 210    7:40   0.41   67.2    64    1.7   110     3.7   971.6    0.00 
 210    7:50   0.45   68.0    63    3.1   119     5.1   971.8    0.00 
 210    8:00   0.48   68.3    62    3.1   124     5.3   971.9    0.00 
 210    8:10   0.51   69.9    60    2.7   115     5.7   972.1    0.00 
 210    8:20   0.54   71.5    57    1.5   136     3.6   972.1    0.00 
 210    8:30   0.57   74.1    52    2.3   115     4.1   972.0    0.00 
 210    8:40   0.60   75.7    50    3.6   126     6.1   972.0    0.00 
 210    8:50   0.63   75.4    51    5.5   124     8.0   972.2    0.00 
 210    9:00   0.66   77.1    49    4.3   119     8.4   972.2    0.00 
 210    9:10   0.69   77.6    49    5.6   121     8.1   972.1    0.00 
 210    9:20   0.71   78.4    48    4.8   123     9.1   972.2    0.00 
 210    9:30   0.74   79.4    46    3.9   166     7.2   972.2    0.00 
 210    9:40   0.76   80.1    44    3.6   214     8.1   972.1    0.00 
 210    9:50   0.78   81.4    42    3.1   172     8.4   972.1    0.00 
 210   10:00   0.81   82.3    42    4.9   160     8.6   972.1    0.00 
 210   10:10   0.82   83.6    40    3.7   205     7.2   972.1    0.00 
 210   10:20   0.84   83.6    39    5.8   215     9.6   972.0    0.00 
 210   10:30   0.85   83.7    38    6.8   203    10.4   972.0    0.00 
 210   10:40   0.87   84.5    37    6.6   195    10.7   972.0    0.00 
 210   10:50   0.88   85.6    36    6.9   171    12.3   972.0    0.00 
 210   11:00   0.89   85.5    36    6.8   184    11.5   972.0    0.00 
 210   11:10   0.90   86.4    34    6.3   205    11.3   971.9    0.00 
 210   11:20   0.91   87.1    33    6.7   218    12.4   971.8    0.00 
 210   11:30   0.88   88.3    31    6.1   234    11.6   971.7    0.00 
 210   11:40   0.92   88.2    31    7.5   241    13.4   971.7    0.00 
 210   11:50   0.92   89.0    30    7.5   226    14.2   971.7    0.00 
 210   12:00   0.92   89.1    31    9.4   223    14.6   971.7    0.00 
 210   12:10   0.92   89.1    31    9.7   219    13.5   971.7    0.00 
 210   12:20   0.92   89.6    31    8.9   225    15.6   971.7    0.00 
 210   12:30   0.91   89.4    32   10.4   242    16.6   971.7    0.00 
 210   12:40   0.91   89.0    33   10.9   257    18.2   971.7    0.00 
 210   12:50   0.90   89.3    33   10.0   248    15.9   971.8    0.00 
 210   13:00   0.90   89.5    33    9.5   243    14.9   971.8    0.00 
 210   13:10   0.89   89.2    33   11.5   221    17.8   971.8    0.00 
 210   13:20   0.87   89.6    32    9.2   251    14.5   971.8    0.00 
 210   13:30   0.86   89.7    32   10.0   242    14.8   971.7    0.00 
 210   13:40   0.85   90.3    32    9.4   236    15.9   971.6    0.00 

Return to Sedgwick Reserve graphs page.


Western Regional Climate Center,wrcc@dri.edu